sensor_id;sensor_type;location;lat;lon;timestamp;P1;durP1;ratioP1;P2;durP2;ratioP2
69703;SDS011;56967;43.538;-5.646;2023-03-01T00:00:14;9.32;;;1.63;;
69703;SDS011;56967;43.538;-5.646;2023-03-01T00:02:39;5.57;;;1.40;;
69703;SDS011;56967;43.538;-5.646;2023-03-01T00:05:05;3.30;;;1.10;;
69703;SDS011;56967;43.538;-5.646;2023-03-01T00:07:32;2.15;;;0.68;;
69703;SDS011;56967;43.538;-5.646;2023-03-01T00:09:58;3.60;;;1.10;;
69703;SDS011;56967;43.538;-5.646;2023-03-01T00:12:23;3.83;;;0.85;;
69703;SDS011;56967;43.538;-5.646;2023-03-01T00:14:49;3.47;;;1.17;;
69703;SDS011;56967;43.538;-5.646;2023-03-01T00:17:14;3.13;;;0.80;;
69703;SDS011;56967;43.538;-5.646;2023-03-01T00:19:40;3.17;;;1.13;;
69703;SDS011;56967;43.538;-5.646;2023-03-01T00:22:05;6.10;;;1.00;;
69703;SDS011;56967;43.538;-5.646;2023-03-01T00:24:31;8.45;;;1.02;;
69703;SDS011;56967;43.538;-5.646;2023-03-01T00:26:56;1.13;;;0.90;;
69703;SDS011;56967;43.538;-5.646;2023-03-01T00:29:23;1.80;;;0.90;;
69703;SDS011;56967;43.538;-5.646;2023-03-01T00:31:49;4.15;;;1.10;;
69703;SDS011;56967;43.538;-5.646;2023-03-01T00:34:15;6.68;;;1.05;;
69703;SDS011;56967;43.538;-5.646;2023-03-01T00:36:41;6.53;;;1.20;;
69703;SDS011;56967;43.538;-5.646;2023-03-01T00:39:09;4.95;;;0.95;;
69703;SDS011;56967;43.538;-5.646;2023-03-01T00:41:38;8.80;;;1.23;;
69703;SDS011;56967;43.538;-5.646;2023-03-01T00:44:05;3.38;;;0.90;;
69703;SDS011;56967;43.538;-5.646;2023-03-01T00:46:30;5.00;;;1.13;;
69703;SDS011;56967;43.538;-5.646;2023-03-01T00:48:56;4.15;;;1.10;;
69703;SDS011;56967;43.538;-5.646;2023-03-01T00:51:23;4.35;;;0.98;;
69703;SDS011;56967;43.538;-5.646;2023-03-01T00:53:51;3.15;;;1.42;;
69703;SDS011;56967;43.538;-5.646;2023-03-01T00:56:18;6.57;;;1.60;;
69703;SDS011;56967;43.538;-5.646;2023-03-01T00:58:44;5.75;;;1.52;;
69703;SDS011;56967;43.538;-5.646;2023-03-01T01:01:11;4.55;;;1.35;;
69703;SDS011;56967;43.538;-5.646;2023-03-01T01:06:21;4.35;;;1.45;;
69703;SDS011;56967;43.538;-5.646;2023-03-01T01:08:49;4.85;;;1.50;;
69703;SDS011;56967;43.538;-5.646;2023-03-01T01:11:16;3.42;;;1.20;;
69703;SDS011;56967;43.538;-5.646;2023-03-01T01:13:44;4.22;;;1.30;;
69703;SDS011;56967;43.538;-5.646;2023-03-01T01:16:10;3.90;;;1.20;;
69703;SDS011;56967;43.538;-5.646;2023-03-01T01:18:36;5.05;;;1.25;;
69703;SDS011;56967;43.538;-5.646;2023-03-01T01:21:09;3.15;;;1.02;;
69703;SDS011;56967;43.538;-5.646;2023-03-01T01:23:39;2.55;;;1.17;;
69703;SDS011;56967;43.538;-5.646;2023-03-01T01:26:11;4.97;;;1.50;;
69703;SDS011;56967;43.538;-5.646;2023-03-01T01:28:39;4.15;;;1.40;;
69703;SDS011;56967;43.538;-5.646;2023-03-01T01:31:05;4.00;;;1.20;;
69703;SDS011;56967;43.538;-5.646;2023-03-01T01:33:31;2.88;;;1.15;;
69703;SDS011;56967;43.538;-5.646;2023-03-01T01:35:57;3.33;;;1.38;;
69703;SDS011;56967;43.538;-5.646;2023-03-01T01:38:23;3.30;;;1.20;;
69703;SDS011;56967;43.538;-5.646;2023-03-01T01:40:49;3.08;;;1.30;;
69703;SDS011;56967;43.538;-5.646;2023-03-01T01:43:20;3.13;;;1.50;;
69703;SDS011;56967;43.538;-5.646;2023-03-01T01:45:50;4.72;;;1.25;;
69703;SDS011;56967;43.538;-5.646;2023-03-01T01:48:20;5.22;;;0.98;;
69703;SDS011;56967;43.538;-5.646;2023-03-01T01:50:50;2.65;;;1.10;;
69703;SDS011;56967;43.538;-5.646;2023-03-01T01:53:20;3.53;;;1.30;;
69703;SDS011;56967;43.538;-5.646;2023-03-01T01:55:47;7.40;;;1.30;;
69703;SDS011;56967;43.538;-5.646;2023-03-01T01:58:17;5.57;;;1.50;;
69703;SDS011;56967;43.538;-5.646;2023-03-01T02:00:45;5.18;;;1.75;;
69703;SDS011;56967;43.538;-5.646;2023-03-01T02:03:13;4.18;;;1.58;;
69703;SDS011;56967;43.538;-5.646;2023-03-01T02:05:47;5.63;;;2.38;;
69703;SDS011;56967;43.538;-5.646;2023-03-01T02:08:19;6.45;;;2.30;;
69703;SDS011;56967;43.538;-5.646;2023-03-01T02:10:46;4.88;;;2.10;;
69703;SDS011;56967;43.538;-5.646;2023-03-01T02:13:14;3.60;;;2.30;;
69703;SDS011;56967;43.538;-5.646;2023-03-01T02:15:40;5.72;;;2.38;;
69703;SDS011;56967;43.538;-5.646;2023-03-01T02:18:09;10.73;;;2.92;;
69703;SDS011;56967;43.538;-5.646;2023-03-01T02:23:29;6.82;;;2.70;;
69703;SDS011;56967;43.538;-5.646;2023-03-01T02:28:36;5.70;;;2.30;;
69703;SDS011;56967;43.538;-5.646;2023-03-01T02:31:04;5.88;;;2.13;;
69703;SDS011;56967;43.538;-5.646;2023-03-01T02:33:50;4.10;;;2.00;;
69703;SDS011;56967;43.538;-5.646;2023-03-01T02:36:18;6.95;;;2.40;;
69703;SDS011;56967;43.538;-5.646;2023-03-01T02:38:45;4.82;;;2.38;;
69703;SDS011;56967;43.538;-5.646;2023-03-01T02:41:13;6.07;;;2.58;;
69703;SDS011;56967;43.538;-5.646;2023-03-01T02:43:42;5.40;;;2.90;;
69703;SDS011;56967;43.538;-5.646;2023-03-01T02:46:12;5.63;;;2.88;;
69703;SDS011;56967;43.538;-5.646;2023-03-01T02:48:44;5.30;;;2.70;;
69703;SDS011;56967;43.538;-5.646;2023-03-01T02:54:10;4.60;;;2.80;;
69703;SDS011;56967;43.538;-5.646;2023-03-01T02:56:41;4.18;;;2.25;;
69703;SDS011;56967;43.538;-5.646;2023-03-01T02:59:08;4.38;;;2.10;;
69703;SDS011;56967;43.538;-5.646;2023-03-01T03:01:34;4.68;;;1.85;;
69703;SDS011;56967;43.538;-5.646;2023-03-01T03:04:06;4.82;;;1.92;;
69703;SDS011;56967;43.538;-5.646;2023-03-01T03:06:35;3.80;;;1.90;;
69703;SDS011;56967;43.538;-5.646;2023-03-01T03:09:01;6.35;;;2.15;;
69703;SDS011;56967;43.538;-5.646;2023-03-01T03:11:27;6.03;;;2.20;;
69703;SDS011;56967;43.538;-5.646;2023-03-01T03:13:53;3.13;;;2.13;;
69703;SDS011;56967;43.538;-5.646;2023-03-01T03:16:20;6.07;;;2.35;;
69703;SDS011;56967;43.538;-5.646;2023-03-01T03:18:45;3.55;;;2.10;;
69703;SDS011;56967;43.538;-5.646;2023-03-01T03:21:11;4.30;;;2.28;;
69703;SDS011;56967;43.538;-5.646;2023-03-01T03:23:38;3.83;;;2.30;;
69703;SDS011;56967;43.538;-5.646;2023-03-01T03:26:04;5.88;;;3.03;;
69703;SDS011;56967;43.538;-5.646;2023-03-01T03:28:33;5.00;;;2.80;;
69703;SDS011;56967;43.538;-5.646;2023-03-01T03:31:00;7.32;;;3.30;;
69703;SDS011;56967;43.538;-5.646;2023-03-01T03:33:29;6.13;;;3.45;;
69703;SDS011;56967;43.538;-5.646;2023-03-01T03:35:55;7.13;;;3.63;;
69703;SDS011;56967;43.538;-5.646;2023-03-01T03:38:21;8.10;;;3.67;;
69703;SDS011;56967;43.538;-5.646;2023-03-01T03:43:18;8.50;;;3.90;;
69703;SDS011;56967;43.538;-5.646;2023-03-01T03:45:46;7.53;;;4.40;;
69703;SDS011;56967;43.538;-5.646;2023-03-01T03:48:13;8.20;;;4.40;;
69703;SDS011;56967;43.538;-5.646;2023-03-01T03:50:39;10.63;;;5.03;;
69703;SDS011;56967;43.538;-5.646;2023-03-01T03:53:06;8.18;;;4.53;;
69703;SDS011;56967;43.538;-5.646;2023-03-01T03:55:34;10.63;;;4.88;;
69703;SDS011;56967;43.538;-5.646;2023-03-01T03:58:01;10.45;;;4.90;;
69703;SDS011;56967;43.538;-5.646;2023-03-01T04:00:31;9.23;;;4.70;;
69703;SDS011;56967;43.538;-5.646;2023-03-01T04:02:58;8.75;;;4.60;;
69703;SDS011;56967;43.538;-5.646;2023-03-01T04:05:25;7.53;;;4.57;;
69703;SDS011;56967;43.538;-5.646;2023-03-01T04:07:52;7.30;;;4.25;;
69703;SDS011;56967;43.538;-5.646;2023-03-01T04:10:26;6.07;;;4.00;;
69703;SDS011;56967;43.538;-5.646;2023-03-01T04:12:52;8.40;;;4.55;;
69703;SDS011;56967;43.538;-5.646;2023-03-01T04:15:18;6.82;;;4.07;;
69703;SDS011;56967;43.538;-5.646;2023-03-01T04:17:44;7.63;;;4.30;;
69703;SDS011;56967;43.538;-5.646;2023-03-01T04:20:15;6.68;;;4.50;;
69703;SDS011;56967;43.538;-5.646;2023-03-01T04:22:43;6.70;;;3.85;;
69703;SDS011;56967;43.538;-5.646;2023-03-01T04:25:12;7.97;;;4.18;;
69703;SDS011;56967;43.538;-5.646;2023-03-01T04:27:40;9.63;;;4.25;;
69703;SDS011;56967;43.538;-5.646;2023-03-01T04:30:07;9.48;;;4.47;;
69703;SDS011;56967;43.538;-5.646;2023-03-01T04:32:34;8.13;;;4.50;;
69703;SDS011;56967;43.538;-5.646;2023-03-01T04:35:00;10.00;;;4.78;;
69703;SDS011;56967;43.538;-5.646;2023-03-01T04:37:25;12.65;;;4.55;;
69703;SDS011;56967;43.538;-5.646;2023-03-01T04:39:51;7.13;;;4.63;;
69703;SDS011;56967;43.538;-5.646;2023-03-01T04:42:17;6.90;;;4.30;;
69703;SDS011;56967;43.538;-5.646;2023-03-01T04:44:43;7.00;;;4.15;;
69703;SDS011;56967;43.538;-5.646;2023-03-01T04:47:09;7.20;;;4.55;;
69703;SDS011;56967;43.538;-5.646;2023-03-01T04:49:35;8.70;;;4.32;;
69703;SDS011;56967;43.538;-5.646;2023-03-01T04:52:00;10.10;;;4.95;;
69703;SDS011;56967;43.538;-5.646;2023-03-01T04:54:32;6.10;;;4.32;;
69703;SDS011;56967;43.538;-5.646;2023-03-01T04:56:59;6.32;;;4.20;;
69703;SDS011;56967;43.538;-5.646;2023-03-01T04:59:25;7.07;;;4.57;;
69703;SDS011;56967;43.538;-5.646;2023-03-01T05:01:51;9.52;;;4.80;;
69703;SDS011;56967;43.538;-5.646;2023-03-01T05:04:20;6.95;;;4.45;;
69703;SDS011;56967;43.538;-5.646;2023-03-01T05:06:46;6.78;;;4.60;;
69703;SDS011;56967;43.538;-5.646;2023-03-01T05:09:12;7.78;;;4.15;;
69703;SDS011;56967;43.538;-5.646;2023-03-01T05:11:37;6.22;;;4.00;;
69703;SDS011;56967;43.538;-5.646;2023-03-01T05:14:03;8.90;;;3.80;;
69703;SDS011;56967;43.538;-5.646;2023-03-01T05:16:32;6.65;;;3.95;;
69703;SDS011;56967;43.538;-5.646;2023-03-01T05:18:58;9.40;;;4.40;;
69703;SDS011;56967;43.538;-5.646;2023-03-01T05:21:24;6.38;;;3.90;;
69703;SDS011;56967;43.538;-5.646;2023-03-01T05:23:50;8.13;;;3.67;;
69703;SDS011;56967;43.538;-5.646;2023-03-01T05:26:16;9.25;;;3.90;;
69703;SDS011;56967;43.538;-5.646;2023-03-01T05:28:44;4.68;;;3.38;;
69703;SDS011;56967;43.538;-5.646;2023-03-01T05:31:10;6.05;;;3.50;;
69703;SDS011;56967;43.538;-5.646;2023-03-01T05:33:36;7.38;;;4.00;;
69703;SDS011;56967;43.538;-5.646;2023-03-01T05:36:03;7.57;;;3.47;;
69703;SDS011;56967;43.538;-5.646;2023-03-01T05:38:29;7.30;;;3.47;;
69703;SDS011;56967;43.538;-5.646;2023-03-01T05:40:54;5.63;;;3.50;;
69703;SDS011;56967;43.538;-5.646;2023-03-01T05:43:20;4.32;;;3.58;;
69703;SDS011;56967;43.538;-5.646;2023-03-01T05:45:46;6.32;;;3.40;;
69703;SDS011;56967;43.538;-5.646;2023-03-01T05:48:12;7.45;;;3.78;;
69703;SDS011;56967;43.538;-5.646;2023-03-01T05:50:39;6.90;;;3.67;;
69703;SDS011;56967;43.538;-5.646;2023-03-01T05:53:13;5.47;;;3.55;;
69703;SDS011;56967;43.538;-5.646;2023-03-01T05:55:44;7.22;;;3.90;;
69703;SDS011;56967;43.538;-5.646;2023-03-01T05:58:13;7.30;;;3.53;;
69703;SDS011;56967;43.538;-5.646;2023-03-01T06:00:41;8.52;;;3.90;;
69703;SDS011;56967;43.538;-5.646;2023-03-01T06:03:09;7.43;;;3.42;;
69703;SDS011;56967;43.538;-5.646;2023-03-01T06:05:36;8.27;;;3.78;;
69703;SDS011;56967;43.538;-5.646;2023-03-01T06:08:02;7.25;;;3.45;;
69703;SDS011;56967;43.538;-5.646;2023-03-01T06:10:28;7.65;;;3.50;;
69703;SDS011;56967;43.538;-5.646;2023-03-01T06:12:54;5.25;;;3.67;;
69703;SDS011;56967;43.538;-5.646;2023-03-01T06:15:20;6.88;;;3.65;;
69703;SDS011;56967;43.538;-5.646;2023-03-01T06:17:46;7.63;;;3.60;;
69703;SDS011;56967;43.538;-5.646;2023-03-01T06:20:19;8.60;;;3.40;;
69703;SDS011;56967;43.538;-5.646;2023-03-01T06:22:46;6.20;;;3.20;;
69703;SDS011;56967;43.538;-5.646;2023-03-01T06:25:14;7.65;;;3.92;;
69703;SDS011;56967;43.538;-5.646;2023-03-01T06:27:41;6.38;;;3.35;;
69703;SDS011;56967;43.538;-5.646;2023-03-01T06:30:08;6.72;;;3.25;;
69703;SDS011;56967;43.538;-5.646;2023-03-01T06:32:36;6.32;;;3.53;;
69703;SDS011;56967;43.538;-5.646;2023-03-01T06:35:02;4.43;;;3.10;;
69703;SDS011;56967;43.538;-5.646;2023-03-01T06:37:29;7.28;;;3.53;;
69703;SDS011;56967;43.538;-5.646;2023-03-01T06:39:54;6.47;;;3.25;;
69703;SDS011;56967;43.538;-5.646;2023-03-01T06:42:20;5.35;;;3.05;;
69703;SDS011;56967;43.538;-5.646;2023-03-01T06:44:45;7.82;;;3.17;;
69703;SDS011;56967;43.538;-5.646;2023-03-01T06:47:11;5.78;;;3.08;;
69703;SDS011;56967;43.538;-5.646;2023-03-01T06:49:37;7.80;;;3.60;;
69703;SDS011;56967;43.538;-5.646;2023-03-01T06:52:03;8.88;;;3.60;;
69703;SDS011;56967;43.538;-5.646;2023-03-01T06:54:28;6.43;;;3.28;;
69703;SDS011;56967;43.538;-5.646;2023-03-01T06:56:54;5.63;;;3.05;;
69703;SDS011;56967;43.538;-5.646;2023-03-01T06:59:19;4.88;;;3.30;;
69703;SDS011;56967;43.538;-5.646;2023-03-01T07:01:45;7.70;;;3.47;;
69703;SDS011;56967;43.538;-5.646;2023-03-01T07:04:11;6.90;;;3.92;;
69703;SDS011;56967;43.538;-5.646;2023-03-01T07:06:37;6.15;;;3.20;;
69703;SDS011;56967;43.538;-5.646;2023-03-01T07:09:03;8.35;;;3.80;;
69703;SDS011;56967;43.538;-5.646;2023-03-01T07:11:28;12.27;;;3.70;;
69703;SDS011;56967;43.538;-5.646;2023-03-01T07:13:54;4.88;;;3.47;;
69703;SDS011;56967;43.538;-5.646;2023-03-01T07:16:21;8.10;;;3.90;;
69703;SDS011;56967;43.538;-5.646;2023-03-01T07:18:46;9.15;;;4.05;;
69703;SDS011;56967;43.538;-5.646;2023-03-01T07:21:12;9.25;;;3.53;;
69703;SDS011;56967;43.538;-5.646;2023-03-01T07:23:39;5.72;;;3.00;;
69703;SDS011;56967;43.538;-5.646;2023-03-01T07:26:05;6.10;;;3.38;;
69703;SDS011;56967;43.538;-5.646;2023-03-01T07:28:31;7.50;;;3.85;;
69703;SDS011;56967;43.538;-5.646;2023-03-01T07:31:01;6.20;;;3.42;;
69703;SDS011;56967;43.538;-5.646;2023-03-01T07:33:27;8.23;;;2.95;;
69703;SDS011;56967;43.538;-5.646;2023-03-01T07:35:59;6.05;;;2.88;;
69703;SDS011;56967;43.538;-5.646;2023-03-01T07:38:27;4.25;;;2.90;;
69703;SDS011;56967;43.538;-5.646;2023-03-01T07:40:54;9.70;;;2.50;;
69703;SDS011;56967;43.538;-5.646;2023-03-01T07:43:23;7.82;;;2.65;;
69703;SDS011;56967;43.538;-5.646;2023-03-01T07:45:49;5.05;;;2.38;;
69703;SDS011;56967;43.538;-5.646;2023-03-01T07:48:15;4.63;;;2.55;;
69703;SDS011;56967;43.538;-5.646;2023-03-01T07:50:40;4.97;;;2.40;;
69703;SDS011;56967;43.538;-5.646;2023-03-01T07:53:06;8.75;;;2.60;;
69703;SDS011;56967;43.538;-5.646;2023-03-01T07:55:31;3.65;;;2.60;;
69703;SDS011;56967;43.538;-5.646;2023-03-01T07:57:57;6.70;;;2.70;;
69703;SDS011;56967;43.538;-5.646;2023-03-01T08:00:22;4.30;;;2.70;;
69703;SDS011;56967;43.538;-5.646;2023-03-01T08:02:48;7.35;;;3.28;;
69703;SDS011;56967;43.538;-5.646;2023-03-01T08:05:14;4.88;;;2.90;;
69703;SDS011;56967;43.538;-5.646;2023-03-01T08:07:39;11.40;;;3.40;;
69703;SDS011;56967;43.538;-5.646;2023-03-01T08:10:05;5.15;;;3.10;;
69703;SDS011;56967;43.538;-5.646;2023-03-01T08:12:31;6.95;;;3.15;;
69703;SDS011;56967;43.538;-5.646;2023-03-01T08:14:56;8.93;;;3.38;;
69703;SDS011;56967;43.538;-5.646;2023-03-01T08:17:22;6.18;;;2.80;;
69703;SDS011;56967;43.538;-5.646;2023-03-01T08:19:47;5.82;;;3.03;;
69703;SDS011;56967;43.538;-5.646;2023-03-01T08:22:13;6.85;;;2.50;;
69703;SDS011;56967;43.538;-5.646;2023-03-01T08:24:39;6.53;;;3.15;;
69703;SDS011;56967;43.538;-5.646;2023-03-01T08:27:04;9.23;;;3.13;;
69703;SDS011;56967;43.538;-5.646;2023-03-01T08:29:31;10.35;;;2.78;;
69703;SDS011;56967;43.538;-5.646;2023-03-01T08:31:57;8.45;;;3.38;;
69703;SDS011;56967;43.538;-5.646;2023-03-01T08:34:22;6.45;;;3.38;;
69703;SDS011;56967;43.538;-5.646;2023-03-01T08:36:48;6.30;;;2.90;;
69703;SDS011;56967;43.538;-5.646;2023-03-01T08:39:16;7.32;;;2.90;;
69703;SDS011;56967;43.538;-5.646;2023-03-01T08:41:43;6.93;;;3.22;;
69703;SDS011;56967;43.538;-5.646;2023-03-01T08:44:09;7.15;;;3.10;;
69703;SDS011;56967;43.538;-5.646;2023-03-01T08:46:37;5.10;;;3.03;;
69703;SDS011;56967;43.538;-5.646;2023-03-01T08:49:12;8.75;;;3.05;;
69703;SDS011;56967;43.538;-5.646;2023-03-01T08:51:40;10.68;;;3.17;;
69703;SDS011;56967;43.538;-5.646;2023-03-01T08:54:09;6.43;;;3.50;;
69703;SDS011;56967;43.538;-5.646;2023-03-01T08:56:36;4.78;;;2.67;;
69703;SDS011;56967;43.538;-5.646;2023-03-01T08:59:02;7.43;;;2.60;;
69703;SDS011;56967;43.538;-5.646;2023-03-01T09:01:28;6.55;;;2.85;;
69703;SDS011;56967;43.538;-5.646;2023-03-01T09:03:53;4.63;;;2.53;;
69703;SDS011;56967;43.538;-5.646;2023-03-01T09:06:19;9.00;;;2.83;;
69703;SDS011;56967;43.538;-5.646;2023-03-01T09:08:46;6.35;;;2.60;;
69703;SDS011;56967;43.538;-5.646;2023-03-01T09:11:13;5.60;;;2.97;;
69703;SDS011;56967;43.538;-5.646;2023-03-01T09:13:42;5.78;;;2.42;;
69703;SDS011;56967;43.538;-5.646;2023-03-01T09:16:08;4.45;;;2.65;;
69703;SDS011;56967;43.538;-5.646;2023-03-01T09:18:34;7.10;;;2.97;;
69703;SDS011;56967;43.538;-5.646;2023-03-01T09:21:08;6.05;;;2.92;;
69703;SDS011;56967;43.538;-5.646;2023-03-01T09:23:37;6.65;;;3.28;;
69703;SDS011;56967;43.538;-5.646;2023-03-01T09:26:08;5.80;;;3.17;;
69703;SDS011;56967;43.538;-5.646;2023-03-01T09:28:37;6.28;;;3.53;;
69703;SDS011;56967;43.538;-5.646;2023-03-01T09:31:04;6.97;;;3.97;;
69703;SDS011;56967;43.538;-5.646;2023-03-01T09:33:30;7.18;;;3.50;;
69703;SDS011;56967;43.538;-5.646;2023-03-01T09:36:01;7.55;;;3.28;;
69703;SDS011;56967;43.538;-5.646;2023-03-01T09:38:28;7.55;;;3.58;;
69703;SDS011;56967;43.538;-5.646;2023-03-01T09:40:54;4.20;;;2.80;;
69703;SDS011;56967;43.538;-5.646;2023-03-01T09:46:03;3.75;;;2.60;;
69703;SDS011;56967;43.538;-5.646;2023-03-01T09:48:33;3.72;;;2.58;;
69703;SDS011;56967;43.538;-5.646;2023-03-01T09:51:07;7.22;;;2.80;;
69703;SDS011;56967;43.538;-5.646;2023-03-01T09:53:42;4.95;;;2.40;;
69703;SDS011;56967;43.538;-5.646;2023-03-01T09:59:29;2.70;;;2.30;;
69703;SDS011;56967;43.538;-5.646;2023-03-01T10:07:27;4.13;;;2.40;;
69703;SDS011;56967;43.538;-5.646;2023-03-01T10:09:54;4.25;;;2.65;;
69703;SDS011;56967;43.538;-5.646;2023-03-01T10:12:22;4.97;;;2.47;;
69703;SDS011;56967;43.538;-5.646;2023-03-01T10:14:57;4.82;;;2.58;;
69703;SDS011;56967;43.538;-5.646;2023-03-01T10:22:48;3.42;;;2.33;;
69703;SDS011;56967;43.538;-5.646;2023-03-01T10:28:22;6.10;;;2.33;;
69703;SDS011;56967;43.538;-5.646;2023-03-01T10:30:50;6.50;;;2.40;;
69703;SDS011;56967;43.538;-5.646;2023-03-01T10:35:50;3.15;;;2.15;;
69703;SDS011;56967;43.538;-5.646;2023-03-01T10:38:17;2.75;;;1.80;;
69703;SDS011;56967;43.538;-5.646;2023-03-01T10:40:58;2.35;;;1.90;;
69703;SDS011;56967;43.538;-5.646;2023-03-01T10:46:26;2.13;;;1.80;;
69703;SDS011;56967;43.538;-5.646;2023-03-01T10:51:51;3.35;;;1.80;;
69703;SDS011;56967;43.538;-5.646;2023-03-01T10:56:58;2.53;;;1.90;;
69703;SDS011;56967;43.538;-5.646;2023-03-01T10:59:30;3.88;;;2.20;;
69703;SDS011;56967;43.538;-5.646;2023-03-01T11:02:04;2.80;;;2.22;;
69703;SDS011;56967;43.538;-5.646;2023-03-01T11:04:36;5.60;;;2.22;;
69703;SDS011;56967;43.538;-5.646;2023-03-01T11:07:04;6.32;;;2.53;;
69703;SDS011;56967;43.538;-5.646;2023-03-01T11:09:33;4.32;;;2.30;;
69703;SDS011;56967;43.538;-5.646;2023-03-01T11:12:08;6.80;;;2.83;;
69703;SDS011;56967;43.538;-5.646;2023-03-01T11:14:46;4.73;;;2.47;;
69703;SDS011;56967;43.538;-5.646;2023-03-01T11:17:29;6.18;;;2.38;;
69703;SDS011;56967;43.538;-5.646;2023-03-01T11:22:37;11.45;;;2.92;;
69703;SDS011;56967;43.538;-5.646;2023-03-01T11:25:16;6.22;;;2.45;;
69703;SDS011;56967;43.538;-5.646;2023-03-01T11:27:44;3.72;;;2.30;;
69703;SDS011;56967;43.538;-5.646;2023-03-01T11:30:21;5.00;;;3.40;;
69703;SDS011;56967;43.538;-5.646;2023-03-01T11:35:27;10.90;;;4.20;;
69703;SDS011;56967;43.538;-5.646;2023-03-01T11:41:11;6.88;;;3.03;;
69703;SDS011;56967;43.538;-5.646;2023-03-01T11:46:24;5.38;;;3.10;;
69703;SDS011;56967;43.538;-5.646;2023-03-01T11:54:28;10.10;;;3.42;;
69703;SDS011;56967;43.538;-5.646;2023-03-01T12:00:13;8.00;;;4.00;;
69703;SDS011;56967;43.538;-5.646;2023-03-01T12:05:47;6.07;;;3.38;;
69703;SDS011;56967;43.538;-5.646;2023-03-01T12:08:33;6.18;;;3.08;;
69703;SDS011;56967;43.538;-5.646;2023-03-01T12:22:32;6.18;;;2.65;;
69703;SDS011;56967;43.538;-5.646;2023-03-01T12:37:11;1.77;;;1.65;;
69703;SDS011;56967;43.538;-5.646;2023-03-01T12:51:17;1.65;;;1.30;;
69703;SDS011;56967;43.538;-5.646;2023-03-01T12:53:48;1.85;;;1.20;;
69703;SDS011;56967;43.538;-5.646;2023-03-01T12:56:19;1.55;;;1.13;;
69703;SDS011;56967;43.538;-5.646;2023-03-01T13:15:32;7.88;;;3.10;;
69703;SDS011;56967;43.538;-5.646;2023-03-01T13:23:24;3.05;;;1.70;;
69703;SDS011;56967;43.538;-5.646;2023-03-01T13:33:45;3.42;;;1.40;;
69703;SDS011;56967;43.538;-5.646;2023-03-01T13:41:53;3.38;;;1.60;;
69703;SDS011;56967;43.538;-5.646;2023-03-01T13:46:49;2.53;;;1.50;;
69703;SDS011;56967;43.538;-5.646;2023-03-01T13:49:18;2.60;;;1.48;;
69703;SDS011;56967;43.538;-5.646;2023-03-01T13:51:47;5.35;;;1.73;;
69703;SDS011;56967;43.538;-5.646;2023-03-01T13:54:15;3.65;;;1.60;;
69703;SDS011;56967;43.538;-5.646;2023-03-01T13:56:43;3.45;;;1.83;;
69703;SDS011;56967;43.538;-5.646;2023-03-01T14:01:39;3.70;;;1.98;;
69703;SDS011;56967;43.538;-5.646;2023-03-01T14:04:19;5.20;;;2.60;;
69703;SDS011;56967;43.538;-5.646;2023-03-01T14:06:47;3.58;;;2.30;;
69703;SDS011;56967;43.538;-5.646;2023-03-01T14:12:02;3.42;;;2.40;;
69703;SDS011;56967;43.538;-5.646;2023-03-01T14:19:57;3.90;;;1.73;;
69703;SDS011;56967;43.538;-5.646;2023-03-01T14:22:25;2.72;;;1.55;;
69703;SDS011;56967;43.538;-5.646;2023-03-01T14:27:25;8.05;;;3.60;;
69703;SDS011;56967;43.538;-5.646;2023-03-01T14:29:54;5.38;;;3.30;;
69703;SDS011;56967;43.538;-5.646;2023-03-01T14:32:25;12.85;;;7.85;;
69703;SDS011;56967;43.538;-5.646;2023-03-01T14:34:52;5.18;;;2.63;;
69703;SDS011;56967;43.538;-5.646;2023-03-01T14:39:52;3.42;;;2.70;;
69703;SDS011;56967;43.538;-5.646;2023-03-01T14:42:19;6.57;;;3.25;;
69703;SDS011;56967;43.538;-5.646;2023-03-01T14:44:47;10.65;;;2.30;;
69703;SDS011;56967;43.538;-5.646;2023-03-01T14:47:36;11.13;;;2.00;;
69703;SDS011;56967;43.538;-5.646;2023-03-01T14:53:06;7.70;;;4.28;;
69703;SDS011;56967;43.538;-5.646;2023-03-01T14:55:41;12.43;;;6.70;;
69703;SDS011;56967;43.538;-5.646;2023-03-01T14:58:12;12.85;;;7.53;;
69703;SDS011;56967;43.538;-5.646;2023-03-01T15:00:39;10.55;;;7.38;;
69703;SDS011;56967;43.538;-5.646;2023-03-01T15:03:14;11.70;;;7.32;;
69703;SDS011;56967;43.538;-5.646;2023-03-01T15:05:51;9.30;;;5.30;;
69703;SDS011;56967;43.538;-5.646;2023-03-01T15:08:23;9.57;;;6.18;;
69703;SDS011;56967;43.538;-5.646;2023-03-01T15:11:16;10.25;;;5.93;;
69703;SDS011;56967;43.538;-5.646;2023-03-01T15:13:47;9.20;;;5.50;;
69703;SDS011;56967;43.538;-5.646;2023-03-01T15:16:14;16.90;;;9.50;;
69703;SDS011;56967;43.538;-5.646;2023-03-01T15:18:51;12.73;;;8.20;;
69703;SDS011;56967;43.538;-5.646;2023-03-01T15:21:21;14.80;;;6.57;;
69703;SDS011;56967;43.538;-5.646;2023-03-01T15:23:53;13.82;;;7.70;;
69703;SDS011;56967;43.538;-5.646;2023-03-01T15:26:30;30.73;;;16.05;;
69703;SDS011;56967;43.538;-5.646;2023-03-01T15:28:59;8.57;;;2.80;;
69703;SDS011;56967;43.538;-5.646;2023-03-01T15:31:27;3.08;;;1.50;;
69703;SDS011;56967;43.538;-5.646;2023-03-01T15:36:58;5.40;;;2.63;;
69703;SDS011;56967;43.538;-5.646;2023-03-01T15:39:27;6.30;;;4.18;;
69703;SDS011;56967;43.538;-5.646;2023-03-01T15:42:11;6.32;;;3.03;;
69703;SDS011;56967;43.538;-5.646;2023-03-01T15:44:39;3.83;;;1.50;;
69703;SDS011;56967;43.538;-5.646;2023-03-01T15:49:56;11.23;;;2.05;;
69703;SDS011;56967;43.538;-5.646;2023-03-01T15:52:29;4.35;;;1.42;;
69703;SDS011;56967;43.538;-5.646;2023-03-01T15:55:03;4.40;;;1.67;;
69703;SDS011;56967;43.538;-5.646;2023-03-01T15:57:31;6.70;;;2.40;;
69703;SDS011;56967;43.538;-5.646;2023-03-01T15:59:56;13.10;;;2.50;;
69703;SDS011;56967;43.538;-5.646;2023-03-01T16:02:22;13.90;;;2.70;;
69703;SDS011;56967;43.538;-5.646;2023-03-01T16:04:48;11.88;;;3.28;;
69703;SDS011;56967;43.538;-5.646;2023-03-01T16:07:14;11.43;;;3.40;;
69703;SDS011;56967;43.538;-5.646;2023-03-01T16:09:40;4.22;;;1.90;;
69703;SDS011;56967;43.538;-5.646;2023-03-01T16:12:09;16.73;;;3.00;;
69703;SDS011;56967;43.538;-5.646;2023-03-01T16:14:39;9.45;;;2.70;;
69703;SDS011;56967;43.538;-5.646;2023-03-01T16:17:04;7.55;;;2.50;;
69703;SDS011;56967;43.538;-5.646;2023-03-01T16:19:30;7.00;;;2.83;;
69703;SDS011;56967;43.538;-5.646;2023-03-01T16:21:56;16.40;;;3.20;;
69703;SDS011;56967;43.538;-5.646;2023-03-01T16:24:21;5.50;;;1.90;;
69703;SDS011;56967;43.538;-5.646;2023-03-01T16:26:47;8.68;;;2.17;;
69703;SDS011;56967;43.538;-5.646;2023-03-01T16:29:12;12.10;;;3.10;;
69703;SDS011;56967;43.538;-5.646;2023-03-01T16:31:38;3.45;;;1.60;;
69703;SDS011;56967;43.538;-5.646;2023-03-01T16:34:04;3.30;;;1.65;;
69703;SDS011;56967;43.538;-5.646;2023-03-01T16:36:32;7.22;;;2.10;;
69703;SDS011;56967;43.538;-5.646;2023-03-01T16:38:58;6.40;;;1.92;;
69703;SDS011;56967;43.538;-5.646;2023-03-01T16:41:25;4.15;;;1.65;;
69703;SDS011;56967;43.538;-5.646;2023-03-01T16:43:52;0.88;;;0.68;;
69703;SDS011;56967;43.538;-5.646;2023-03-01T16:46:19;3.30;;;0.65;;
69703;SDS011;56967;43.538;-5.646;2023-03-01T16:48:50;4.80;;;0.70;;
69703;SDS011;56967;43.538;-5.646;2023-03-01T16:51:16;1.55;;;0.50;;
69703;SDS011;56967;43.538;-5.646;2023-03-01T16:53:43;4.18;;;0.70;;
69703;SDS011;56967;43.538;-5.646;2023-03-01T16:56:09;3.83;;;0.93;;
69703;SDS011;56967;43.538;-5.646;2023-03-01T16:58:36;2.60;;;0.77;;
69703;SDS011;56967;43.538;-5.646;2023-03-01T17:01:24;5.82;;;0.90;;
69703;SDS011;56967;43.538;-5.646;2023-03-01T17:03:49;5.57;;;0.80;;
69703;SDS011;56967;43.538;-5.646;2023-03-01T17:06:16;2.40;;;0.50;;
69703;SDS011;56967;43.538;-5.646;2023-03-01T17:08:45;6.05;;;0.95;;
69703;SDS011;56967;43.538;-5.646;2023-03-01T17:11:12;2.45;;;0.85;;
69703;SDS011;56967;43.538;-5.646;2023-03-01T17:13:40;3.97;;;0.85;;
69703;SDS011;56967;43.538;-5.646;2023-03-01T17:16:10;3.13;;;0.80;;
69703;SDS011;56967;43.538;-5.646;2023-03-01T17:18:37;3.70;;;0.90;;
69703;SDS011;56967;43.538;-5.646;2023-03-01T17:21:04;6.25;;;1.15;;
69703;SDS011;56967;43.538;-5.646;2023-03-01T17:23:31;3.63;;;1.40;;